Strongsville, Ohio
Current Conditions -  °F | °C
As of 6:51 AM on Thursday 27 Nov 2014 (Local Time) from KCLE Reporting Station
Light Snow Light Snow  
Wind Chill: 23°   Ceiling: 1300
Heat Index: 32°   Visibility: 4mi
Dew Point: 30°   Wind: 12mph
Humidity: 92%   Direction: 320°NW
Pressure: 30.09"   Gusts: NA
Location:  41.31°N, 81.83°W
Report Text: KCLE 271151Z 32010KT 4SM -SN FEW007 BKN013 OVC019 00/M01 A3009 RMK AO2 SLP196 4/001 SNINCR 1/1 P0009 60011 70011 T00001011 10006 20000 53014 $
Loading
Personal Weather Stations






























Interactive Weather Map New forecast layout! Learn more

10-Day Weather Forecast

Advertisements
Track Severe Weather on mobile